Airfield :
LOGIN :

Register | Disclaimer

   EN    FR    IT 

 










Legend :    VFR   Marginal VFR   IFR   Intensive IFR   Very Intensive IFR
Visi :
Ceiling :
>= 8 km
>= 3000ft
5 to 8 km
1000 to 3000 ft
1500m to 5 km
500 to 1000 ft
800 to 1500m
200 to 500 ft
< 800m
< 200 ft
Symbols :   Thunderstorms  Fog  Heavy snow  Heavy precipitations  Wind > 20 kt
SIGMETs :     Misc.  Thunderstorms  Icing  Turbulence  Mountain Waves  Volcanic Ashes






- Airport Elevation : 610 ft
- IATA code : VXO


ESMX - Växjö Kronoberg

CURRENT METAR :
  • 021650Z AUTO 25022G39KT 2200 -RA VV016 04/03 Q0989 REDZ REUP

EXPIRED METARs :
  • 021620Z AUTO 22023G34KT 9999 BKN026/// OVC038/// 07/02 Q0988
  • 021550Z AUTO 22024KT 9999 BKN028/// 07/02 Q0989
  • 021520Z AUTO 22023G35KT 9999 FEW021/// BKN028/// BKN036/// 07/02 Q0990 REUP
  • 021450Z AUTO 22022G37KT 190V280 9999 BKN030/// BKN045/// OVC053/// 07/02 Q0991 REUP
  • 021420Z AUTO 22021G33KT 9999 BKN029/// OVC059/// 08/03 Q0991

Expired Forecast.



MET'MAP, your aeronautical weather chart ! - Copyright ORBIFLY December 2007 - Disclaimer

ORBIFLY MET'MAP TEAM :

Programming & Development : Alexandra Zaïnal
Concept & original design : Baudouin d'Aumeries
Assistance for programming : Marc-Olivier Méhu
Technical & hardware support : Manuel Goepfert

Contact : metmap@orbifly.com




SOURCES & CREDITS :

   NOAA